createdAt,value
2023-04-15T00:00:56.782Z,3.37
2023-04-15T00:03:23.731Z,4.37
2023-04-15T00:05:51.869Z,4.90
2023-04-15T00:08:18.598Z,4.37
2023-04-15T00:10:45.298Z,4.93
2023-04-15T00:13:12.120Z,3.97
2023-04-15T00:15:38.832Z,5.30
2023-04-15T00:18:05.468Z,4.40
2023-04-15T00:20:32.150Z,4.30
2023-04-15T00:23:00.180Z,3.97
2023-04-15T00:25:26.851Z,3.43
2023-04-15T00:27:53.580Z,3.57
2023-04-15T00:30:20.354Z,4.10
2023-04-15T00:32:47.125Z,3.60
2023-04-15T00:35:15.528Z,3.80
2023-04-15T00:37:43.223Z,4.80
2023-04-15T00:40:13.758Z,4.17
2023-04-15T00:42:40.742Z,3.97
2023-04-15T00:45:08.412Z,3.90
2023-04-15T00:47:36.001Z,3.50
2023-04-15T00:50:02.715Z,3.40
2023-04-15T00:52:29.379Z,3.90
2023-04-15T00:54:56.109Z,4.20
2023-04-15T00:57:24.274Z,4.80
2023-04-15T00:59:52.068Z,4.77
2023-04-15T01:02:19.046Z,4.30
2023-04-15T01:04:45.750Z,4.60
2023-04-15T01:07:12.390Z,4.67
2023-04-15T01:09:39.315Z,5.00
2023-04-15T01:12:07.032Z,4.90
2023-04-15T01:14:35.072Z,5.10
2023-04-15T01:17:01.885Z,4.60
2023-04-15T01:19:28.799Z,4.33
2023-04-15T01:21:56.296Z,4.97
2023-04-15T01:24:24.218Z,4.67
2023-04-15T01:26:52.207Z,4.77
2023-04-15T01:29:18.907Z,5.17
2023-04-15T01:31:50.802Z,6.10
2023-04-15T01:34:17.613Z,4.57
2023-04-15T01:36:44.338Z,4.73
2023-04-15T01:39:11.079Z,4.93
2023-04-15T01:41:37.763Z,4.43
2023-04-15T01:44:06.921Z,4.37
2023-04-15T01:46:34.071Z,4.30
2023-04-15T01:49:02.363Z,4.20
2023-04-15T01:51:29.463Z,5.50
2023-04-15T01:53:56.166Z,5.30
2023-04-15T01:56:22.937Z,5.23
2023-04-15T01:58:49.622Z,5.37
2023-04-15T02:01:17.776Z,5.00
2023-04-15T02:03:45.733Z,5.70
2023-04-15T02:06:12.504Z,4.63
2023-04-15T02:08:39.203Z,5.77
2023-04-15T02:11:05.864Z,5.60
2023-04-15T02:13:32.537Z,5.20
2023-04-15T02:15:59.340Z,5.73
2023-04-15T02:18:27.432Z,6.50
2023-04-15T02:20:54.171Z,5.60
2023-04-15T02:23:20.860Z,5.40
2023-04-15T02:25:53.234Z,7.60
2023-04-15T02:28:21.068Z,6.10
2023-04-15T02:30:48.527Z,5.67
2023-04-15T02:33:15.190Z,6.53
2023-04-15T02:35:43.355Z,6.83
2023-04-15T02:38:10.053Z,6.30
2023-04-15T02:40:36.786Z,6.87
2023-04-15T02:43:05.211Z,6.97
2023-04-15T02:45:31.908Z,6.87
2023-04-15T02:47:58.588Z,7.50
2023-04-15T02:50:25.363Z,7.53
2023-04-15T02:52:59.434Z,8.97
2023-04-15T02:55:26.111Z,9.00
2023-04-15T02:57:52.822Z,7.80
2023-04-15T03:00:19.482Z,7.00
2023-04-15T03:02:47.068Z,5.40
2023-04-15T03:05:16.477Z,5.60
2023-04-15T03:07:43.199Z,5.80
2023-04-15T03:10:11.353Z,5.20
2023-04-15T03:12:38.107Z,5.70
2023-04-15T03:15:06.026Z,4.60
2023-04-15T03:17:32.765Z,4.83
2023-04-15T03:19:59.460Z,4.60
2023-04-15T03:22:26.181Z,5.90
2023-04-15T03:24:52.866Z,4.33
2023-04-15T03:27:20.848Z,5.73
2023-04-15T03:29:47.524Z,5.10
2023-04-15T03:32:14.231Z,5.30
2023-04-15T03:34:41.288Z,4.50
2023-04-15T03:37:08.102Z,5.70
2023-04-15T03:39:34.950Z,4.53
2023-04-15T03:42:04.142Z,4.10
2023-04-15T03:44:32.157Z,5.80
2023-04-15T03:46:58.976Z,5.60
2023-04-15T03:49:25.667Z,4.83
2023-04-15T03:51:52.371Z,5.30
2023-04-15T03:54:19.010Z,4.87
2023-04-15T03:56:45.744Z,4.10
2023-04-15T03:59:12.486Z,4.50
2023-04-15T04:01:40.552Z,4.00
2023-04-15T04:04:07.323Z,4.03
2023-04-15T04:06:34.142Z,4.87
2023-04-15T04:09:01.029Z,4.30
2023-04-15T04:11:27.968Z,3.90
2023-04-15T04:13:54.621Z,2.83
2023-04-15T04:16:21.485Z,3.73
2023-04-15T04:18:49.682Z,3.73
2023-04-15T04:21:16.500Z,4.20
2023-04-15T04:23:43.233Z,3.67
2023-04-15T04:26:09.880Z,4.00
2023-04-15T04:28:36.527Z,4.00
2023-04-15T04:31:03.228Z,3.83
2023-04-15T04:33:30.161Z,3.50
2023-04-15T04:35:58.191Z,3.77
2023-04-15T04:38:24.884Z,3.63
2023-04-15T04:40:51.624Z,2.73
2023-04-15T04:43:18.353Z,3.20
2023-04-15T04:45:45.074Z,3.17
2023-04-15T04:48:11.704Z,2.90
2023-04-15T04:50:38.375Z,2.90
2023-04-15T04:53:06.397Z,3.13
2023-04-15T04:55:33.190Z,2.70
2023-04-15T04:57:59.926Z,3.30
2023-04-15T05:00:26.617Z,2.93
2023-04-15T05:02:54.797Z,3.37
2023-04-15T05:05:21.736Z,3.00
2023-04-15T05:07:48.432Z,2.90
2023-04-15T05:10:16.644Z,3.20
2023-04-15T05:12:43.440Z,3.10
2023-04-15T05:15:10.782Z,2.97
2023-04-15T05:17:37.637Z,2.83
2023-04-15T05:20:05.036Z,3.57
2023-04-15T05:22:31.813Z,3.37
2023-04-15T05:24:58.486Z,3.00
2023-04-15T05:27:26.547Z,2.77
2023-04-15T05:29:53.215Z,3.53
2023-04-15T05:32:19.969Z,3.10
2023-04-15T05:34:46.706Z,3.50
2023-04-15T05:37:13.907Z,2.93
2023-04-15T05:43:10.912Z,3.20
2023-04-15T05:45:37.614Z,3.80
2023-04-15T05:48:04.501Z,3.60
2023-04-15T05:50:31.275Z,4.03
2023-04-15T05:52:58.030Z,3.97
2023-04-15T05:55:24.711Z,3.60
2023-04-15T05:57:51.379Z,3.80
2023-04-15T06:00:20.901Z,4.27
2023-04-15T06:02:47.875Z,3.37
2023-04-15T06:05:14.732Z,4.23
2023-04-15T06:07:41.386Z,3.97
2023-04-15T06:10:09.036Z,4.07
2023-04-15T06:12:35.766Z,3.70
2023-04-15T06:15:02.516Z,3.70
2023-04-15T06:17:30.523Z,5.10
2023-04-15T06:19:57.210Z,5.13
2023-04-15T06:22:24.009Z,4.57
2023-04-15T06:24:50.849Z,5.47
2023-04-15T06:27:17.674Z,4.40
2023-04-15T06:29:44.393Z,4.77
2023-04-15T06:32:11.201Z,4.37
2023-04-15T06:34:39.287Z,5.27
2023-04-15T06:37:06.371Z,5.07
2023-04-15T06:39:33.317Z,5.17
2023-04-15T06:41:59.955Z,5.23
2023-04-15T06:44:26.758Z,6.00
2023-04-15T06:46:53.427Z,5.67
2023-04-15T06:49:20.138Z,5.23
2023-04-15T06:51:48.222Z,5.17
2023-04-15T06:54:14.881Z,5.07
2023-04-15T06:56:41.558Z,5.20
2023-04-15T06:59:08.203Z,5.23
2023-04-15T07:01:34.892Z,6.37
2023-04-15T07:04:02.722Z,6.00
2023-04-15T07:06:35.239Z,5.90
2023-04-15T07:09:04.012Z,6.50
2023-04-15T07:11:31.283Z,8.30
2023-04-15T07:14:28.110Z,6.77
2023-04-15T07:16:57.745Z,9.70
2023-04-15T07:19:24.862Z,7.77
2023-04-15T07:21:51.659Z,8.50
2023-04-15T07:26:47.545Z,9.63
2023-04-15T07:29:14.276Z,9.73
2023-04-15T07:31:44.183Z,10.43
2023-04-15T07:34:13.985Z,11.30
2023-04-15T07:36:42.837Z,11.10
2023-04-15T07:39:12.268Z,12.77
2023-04-15T07:41:39.114Z,13.90
2023-04-15T07:44:07.237Z,14.20
2023-04-15T07:46:34.030Z,14.23
2023-04-15T07:49:00.987Z,14.93
2023-04-15T07:51:27.990Z,14.13
2023-04-15T07:53:56.877Z,17.37
2023-04-15T07:56:25.636Z,18.77
2023-04-15T07:58:53.047Z,16.87
2023-04-15T08:01:21.063Z,20.57
2023-04-15T08:03:47.858Z,18.37
2023-04-15T08:06:16.195Z,19.47
2023-04-15T08:08:42.894Z,19.43
2023-04-15T08:11:11.861Z,19.60
2023-04-15T08:13:38.774Z,20.73
2023-04-15T08:16:18.333Z,23.10
2023-04-15T08:18:46.479Z,21.30
2023-04-15T08:21:13.189Z,26.10
2023-04-15T08:23:40.052Z,24.27
2023-04-15T08:26:06.904Z,24.00
2023-04-15T08:28:33.585Z,23.03
2023-04-15T08:31:00.268Z,26.20
2023-04-15T08:33:27.045Z,24.90
2023-04-15T08:35:55.075Z,30.10
2023-04-15T08:38:21.785Z,27.23
2023-04-15T08:40:48.491Z,28.10
2023-04-15T08:43:21.576Z,26.27
2023-04-15T08:45:49.825Z,28.37
2023-04-15T08:48:17.390Z,28.67
2023-04-15T08:50:44.374Z,29.47
2023-04-15T08:53:12.940Z,28.00
2023-04-15T08:55:43.415Z,29.30
2023-04-15T08:58:10.896Z,28.17
2023-04-15T09:00:38.049Z,26.37
2023-04-15T09:03:05.268Z,28.33
2023-04-15T09:05:35.240Z,20.57
2023-04-15T09:08:02.198Z,27.43
2023-04-15T09:10:30.456Z,21.57
2023-04-15T09:12:57.297Z,24.30
2023-04-15T09:15:25.500Z,24.80
2023-04-15T09:17:53.911Z,26.53
2023-04-15T09:20:39.626Z,24.10
2023-04-15T09:23:12.408Z,19.30
2023-04-15T09:25:40.920Z,22.70
2023-04-15T09:28:07.796Z,24.17
2023-04-15T09:30:34.666Z,27.47
2023-04-15T09:33:03.457Z,25.23
2023-04-15T09:35:44.404Z,24.17
2023-04-15T09:38:53.724Z,22.83
2023-04-15T09:41:33.696Z,20.27
2023-04-15T09:44:00.638Z,20.90
2023-04-15T09:46:41.185Z,23.87
2023-04-15T09:49:08.625Z,21.80
2023-04-15T09:51:35.623Z,23.03
2023-04-15T09:54:02.696Z,23.17
2023-04-15T09:56:35.204Z,21.27
2023-04-15T09:59:01.921Z,17.50
2023-04-15T10:01:29.064Z,23.40
2023-04-15T10:03:57.329Z,22.90
2023-04-15T10:06:25.563Z,22.43
2023-04-15T10:08:52.439Z,20.90
2023-04-15T10:11:20.811Z,16.17
2023-04-15T10:13:49.870Z,22.93
2023-04-15T10:16:19.271Z,18.27
2023-04-15T10:18:48.252Z,19.63
2023-04-15T10:21:15.372Z,20.80
2023-04-15T10:23:42.901Z,22.77
2023-04-15T10:26:10.774Z,24.70
2023-04-15T10:28:37.515Z,22.17
2023-04-15T10:31:06.728Z,22.03
2023-04-15T10:33:34.958Z,21.23
2023-04-15T10:36:02.445Z,20.37
2023-04-15T10:38:35.930Z,23.20
2023-04-15T10:41:18.052Z,24.03
2023-04-15T10:43:48.979Z,22.73
2023-04-15T10:46:19.732Z,24.73
2023-04-15T10:48:50.389Z,25.00
2023-04-15T10:51:17.189Z,21.30
2023-04-15T10:53:43.904Z,24.20
2023-04-15T10:56:10.603Z,21.87
2023-04-15T10:58:42.198Z,22.50
2023-04-15T11:01:08.985Z,20.27
2023-04-15T11:03:39.865Z,23.50
2023-04-15T11:06:07.348Z,20.67
2023-04-15T11:08:53.912Z,24.47
2023-04-15T11:11:20.618Z,23.53
2023-04-15T11:13:53.498Z,24.40
2023-04-15T11:16:20.322Z,21.33
2023-04-15T11:18:56.095Z,22.60
2023-04-15T11:21:25.320Z,23.60
2023-04-15T11:23:52.093Z,23.20
2023-04-15T11:26:18.833Z,23.00
2023-04-15T11:28:46.197Z,23.97
2023-04-15T11:31:14.372Z,23.10
2023-04-15T11:33:53.490Z,24.00
2023-04-15T11:36:23.708Z,26.70
2023-04-15T11:38:50.603Z,23.73
2023-04-15T11:41:20.774Z,23.07
2023-04-15T11:43:47.620Z,23.53
2023-04-15T11:46:15.821Z,26.17
2023-04-15T11:48:44.629Z,24.03
2023-04-15T11:51:12.308Z,23.73
2023-04-15T11:53:51.814Z,22.77
2023-04-15T11:59:45.237Z,21.60
2023-04-15T12:02:16.516Z,22.17
2023-04-15T12:05:01.060Z,22.03
2023-04-15T12:07:29.971Z,21.40
2023-04-15T12:10:42.045Z,16.77
2023-04-15T12:13:07.065Z,22.77
2023-04-15T12:15:37.520Z,23.70
2023-04-15T12:18:05.446Z,21.93
2023-04-15T12:20:33.072Z,22.57
2023-04-15T12:23:06.130Z,23.37
2023-04-15T12:25:40.294Z,22.10
2023-04-15T12:28:14.391Z,23.27
2023-04-15T12:30:49.513Z,22.33
2023-04-15T12:33:18.537Z,23.73
2023-04-15T12:35:47.530Z,22.73
2023-04-15T12:38:32.692Z,23.20
2023-04-15T12:42:01.245Z,21.37
2023-04-15T12:45:07.784Z,16.13
2023-04-15T12:57:32.738Z,18.30
2023-04-15T12:59:59.439Z,14.23
2023-04-15T13:02:26.329Z,17.23
2023-04-15T13:04:53.260Z,15.20
2023-04-15T13:07:20.112Z,15.90
2023-04-15T13:09:46.949Z,16.57
2023-04-15T13:12:13.832Z,16.60
2023-04-15T13:14:42.219Z,16.20
2023-04-15T13:17:08.937Z,15.40
2023-04-15T13:19:35.860Z,18.20
2023-04-15T13:22:02.596Z,17.00
2023-04-15T13:24:29.278Z,16.50
2023-04-15T13:26:55.969Z,15.00
2023-04-15T13:29:22.647Z,15.00
2023-04-15T13:31:50.832Z,15.07
2023-04-15T13:34:19.970Z,13.80
2023-04-15T13:36:47.246Z,14.00
2023-04-15T13:39:14.063Z,15.60
2023-04-15T13:41:40.761Z,17.47
2023-04-15T13:44:07.757Z,16.30
2023-04-15T13:46:34.661Z,14.57
2023-04-15T13:49:02.808Z,14.60
2023-04-15T13:51:32.734Z,14.50
2023-04-15T13:54:02.342Z,15.90
2023-04-15T13:56:29.461Z,16.10
2023-04-15T13:58:59.119Z,17.20
2023-04-15T14:01:26.062Z,14.70
2023-04-15T14:03:53.024Z,15.87
2023-04-15T14:06:21.337Z,14.57
2023-04-15T14:08:48.135Z,16.07
2023-04-15T14:11:17.499Z,17.00
2023-04-15T14:13:44.464Z,18.77
2023-04-15T14:16:11.184Z,15.90
2023-04-15T14:18:37.955Z,17.40
2023-04-15T14:21:05.982Z,20.03
2023-04-15T14:23:34.017Z,17.03
2023-04-15T14:26:00.763Z,18.07
2023-04-15T14:28:27.546Z,16.10
2023-04-15T14:30:54.272Z,19.53
2023-04-15T14:33:21.048Z,16.87
2023-04-15T14:35:47.810Z,18.30
2023-04-15T14:38:14.495Z,15.90
2023-04-15T14:40:42.605Z,19.00
2023-04-15T14:43:09.612Z,18.73
2023-04-15T14:45:38.735Z,20.97
2023-04-15T14:48:07.403Z,22.27
2023-04-15T14:50:34.178Z,22.23
2023-04-15T14:53:00.914Z,18.47
2023-04-15T14:55:27.700Z,20.20
2023-04-15T14:57:55.775Z,19.93
2023-04-15T15:00:22.590Z,19.77
2023-04-15T15:02:49.449Z,21.20
2023-04-15T15:05:16.501Z,18.10
2023-04-15T15:07:43.370Z,21.57
2023-04-15T15:10:10.387Z,17.80
2023-04-15T15:12:37.082Z,19.17
2023-04-15T15:15:15.523Z,21.30
2023-04-15T15:17:52.283Z,21.20
2023-04-15T15:20:18.985Z,21.90
2023-04-15T15:22:48.336Z,16.77
2023-04-15T15:25:15.066Z,21.87
2023-04-15T15:27:41.912Z,20.00
2023-04-15T15:30:11.124Z,17.50
2023-04-15T15:32:39.464Z,17.73
2023-04-15T15:35:06.906Z,17.43
2023-04-15T15:37:33.892Z,17.67
2023-04-15T15:40:00.626Z,19.70
2023-04-15T15:42:28.348Z,17.60
2023-04-15T15:44:55.154Z,21.17
2023-04-15T15:47:23.394Z,19.40
2023-04-15T15:49:50.169Z,19.13
2023-04-15T15:52:19.509Z,17.90
2023-04-15T15:54:46.217Z,19.60
2023-04-15T15:57:12.888Z,21.60
2023-04-15T15:59:39.623Z,20.30
2023-04-15T16:02:07.228Z,21.37
2023-04-15T16:04:35.447Z,21.40
2023-04-15T16:07:02.227Z,20.97
2023-04-15T16:09:28.943Z,16.70
2023-04-15T16:11:55.705Z,16.20
2023-04-15T16:14:22.455Z,18.33
2023-04-15T16:16:49.200Z,18.17
2023-04-15T16:19:16.450Z,19.23
2023-04-15T16:21:44.592Z,20.57
2023-04-15T16:24:13.142Z,19.00
2023-04-15T16:26:40.649Z,19.20
2023-04-15T16:29:07.619Z,16.23
2023-04-15T16:31:34.694Z,20.20
2023-04-15T16:34:02.213Z,19.20
2023-04-15T16:36:28.949Z,18.03
2023-04-15T16:38:56.972Z,15.53
2023-04-15T16:41:23.796Z,18.60
2023-04-15T16:43:52.712Z,17.00
2023-04-15T16:46:19.575Z,18.90
2023-04-15T16:48:46.350Z,16.80
2023-04-15T16:51:13.257Z,16.00
2023-04-15T16:53:40.130Z,19.33
2023-04-15T16:56:08.460Z,16.90
2023-04-15T16:58:37.812Z,15.10
2023-04-15T17:01:04.880Z,16.00
2023-04-15T17:03:31.688Z,15.50
2023-04-15T17:08:43.921Z,13.40
2023-04-15T17:11:12.160Z,14.20
2023-04-15T17:13:39.076Z,17.83
2023-04-15T17:16:06.114Z,15.47
2023-04-15T17:18:32.837Z,16.47
2023-04-15T17:20:59.516Z,12.13
2023-04-15T17:23:26.300Z,13.20
2023-04-15T17:25:53.090Z,16.37
2023-04-15T17:28:21.140Z,12.90
2023-04-15T17:30:48.024Z,15.13
2023-04-15T17:33:57.669Z,15.40
2023-04-15T17:36:01.747Z,14.67
2023-04-15T17:38:28.456Z,15.70
2023-04-15T17:40:55.456Z,15.20
2023-04-15T17:43:23.631Z,14.47
2023-04-15T17:45:51.047Z,14.23
2023-04-15T17:48:20.087Z,15.77
2023-04-15T17:50:46.824Z,17.67
2023-04-15T17:53:14.210Z,16.27
2023-04-15T17:55:58.848Z,15.80
2023-04-15T17:59:03.115Z,17.17
2023-04-15T18:02:11.644Z,15.40
2023-04-15T18:04:44.845Z,14.70
2023-04-15T18:07:11.667Z,14.70
2023-04-15T18:09:42.685Z,16.87
2023-04-15T18:12:30.512Z,16.50
2023-04-15T18:14:58.665Z,17.07
2023-04-15T18:17:25.547Z,15.57
2023-04-15T18:19:55.041Z,17.30
2023-04-15T18:22:22.090Z,17.60
2023-04-15T18:24:48.858Z,16.60
2023-04-15T18:27:15.570Z,16.17
2023-04-15T18:29:42.388Z,16.50
2023-04-15T18:32:10.556Z,14.27
2023-04-15T18:34:37.399Z,15.70
2023-04-15T18:37:04.531Z,17.30
2023-04-15T18:39:31.676Z,15.43
2023-04-15T18:41:58.776Z,14.93
2023-04-15T18:44:25.887Z,16.93
2023-04-15T18:46:53.062Z,17.07
2023-04-15T18:49:21.494Z,16.50
2023-04-15T18:51:48.595Z,18.03
2023-04-15T18:54:16.111Z,15.90
2023-04-15T18:56:43.270Z,17.77
2023-04-15T18:59:29.624Z,17.57
2023-04-15T19:01:58.363Z,17.97
2023-04-15T19:04:26.775Z,16.00
2023-04-15T19:06:53.475Z,18.57
2023-04-15T19:09:20.156Z,17.70
2023-04-15T19:11:46.852Z,19.30
2023-04-15T19:14:13.575Z,18.50
2023-04-15T19:16:40.752Z,17.70
2023-04-15T19:19:08.168Z,15.27
2023-04-15T19:21:36.322Z,11.27
2023-04-15T19:24:03.072Z,14.43
2023-04-15T19:26:29.754Z,16.90
2023-04-15T19:28:56.465Z,14.07
2023-04-15T19:31:23.408Z,14.17
2023-04-15T19:33:50.114Z,14.27
2023-04-15T19:36:16.805Z,14.80
2023-04-15T19:38:44.912Z,13.57
2023-04-15T19:41:11.590Z,15.33
2023-04-15T19:43:38.684Z,14.50
2023-04-15T19:46:07.253Z,11.30
2023-04-15T19:48:34.301Z,11.77
2023-04-15T19:51:01.272Z,13.57
2023-04-15T19:53:29.117Z,14.57
2023-04-15T19:55:58.088Z,13.60
2023-04-15T19:58:24.850Z,11.17
2023-04-15T20:00:51.631Z,14.33
2023-04-15T20:03:18.425Z,13.53
2023-04-15T20:05:45.216Z,14.77
2023-04-15T20:08:12.018Z,14.30
2023-04-15T20:10:38.719Z,15.00
2023-04-15T20:13:06.752Z,15.33
2023-04-15T20:15:33.481Z,14.53
2023-04-15T20:18:00.382Z,13.60
2023-04-15T20:20:27.157Z,11.80
2023-04-15T20:22:53.852Z,15.13
2023-04-15T20:25:22.930Z,16.00
2023-04-15T20:27:49.617Z,15.27
2023-04-15T20:30:17.827Z,16.83
2023-04-15T20:32:44.646Z,15.03
2023-04-15T20:35:11.454Z,16.43
2023-04-15T20:37:38.342Z,14.90
2023-04-15T20:40:06.215Z,14.97
2023-04-15T20:42:33.787Z,15.47
2023-04-15T20:45:00.747Z,13.50
2023-04-15T20:47:29.307Z,16.63
2023-04-15T20:49:56.268Z,16.63
2023-04-15T20:52:22.997Z,16.70
2023-04-15T20:54:50.110Z,17.77
2023-04-15T20:57:16.920Z,16.70
2023-04-15T20:59:43.655Z,17.37
2023-04-15T21:02:10.630Z,15.80
2023-04-15T21:04:38.757Z,17.73
2023-04-15T21:07:05.564Z,15.17
2023-04-15T21:09:32.268Z,16.00
2023-04-15T21:12:01.539Z,16.60
2023-04-15T21:14:29.599Z,16.90
2023-04-15T21:16:57.073Z,16.43
2023-04-15T21:19:23.909Z,16.93
2023-04-15T21:21:52.485Z,16.93
2023-04-15T21:24:19.608Z,17.10
2023-04-15T21:26:46.739Z,17.00
2023-04-15T21:29:13.986Z,17.20
2023-04-15T21:31:41.500Z,18.70
2023-04-15T21:34:08.953Z,18.50
2023-04-15T21:36:36.937Z,18.30
2023-04-15T21:39:05.771Z,14.93
2023-04-15T21:41:33.171Z,16.57
2023-04-15T21:44:00.344Z,19.23
2023-04-15T21:46:32.912Z,17.20
2023-04-15T21:49:02.266Z,17.97
2023-04-15T21:51:29.211Z,18.20
2023-04-15T21:53:56.369Z,18.27
2023-04-15T21:56:25.891Z,16.07
2023-04-15T21:58:56.497Z,16.47
2023-04-15T22:01:23.673Z,17.47
2023-04-15T22:03:51.354Z,17.87
2023-04-15T22:06:18.593Z,18.13
2023-04-15T22:09:10.673Z,17.50
2023-04-15T22:11:34.395Z,17.97
2023-04-15T22:14:01.502Z,14.80
2023-04-15T22:16:28.642Z,17.77
2023-04-15T22:18:56.036Z,16.43
2023-04-15T22:21:23.457Z,17.07
2023-04-15T22:23:51.050Z,18.10
2023-04-15T22:26:18.221Z,20.60
2023-04-15T22:28:46.766Z,19.20
2023-04-15T22:31:13.850Z,17.53
2023-04-15T22:33:41.018Z,18.83
2023-04-15T22:36:08.127Z,18.20
2023-04-15T22:38:35.083Z,17.97
2023-04-15T22:41:02.018Z,17.37
2023-04-15T22:43:28.701Z,14.30
2023-04-15T22:45:57.039Z,17.50
2023-04-15T22:48:23.868Z,15.30
2023-04-15T22:50:50.592Z,17.37
2023-04-15T22:53:17.467Z,16.13
2023-04-15T22:55:45.202Z,17.70
2023-04-15T22:58:15.438Z,18.23
2023-04-15T23:00:42.137Z,17.20
2023-04-15T23:03:10.413Z,17.57
2023-04-15T23:05:37.361Z,16.30
2023-04-15T23:08:04.083Z,16.00
2023-04-15T23:10:30.900Z,19.77
2023-04-15T23:12:57.644Z,15.83
2023-04-15T23:15:24.656Z,16.27
2023-04-15T23:17:51.539Z,17.30
2023-04-15T23:20:19.711Z,18.57
2023-04-15T23:22:46.377Z,15.07
2023-04-15T23:25:13.064Z,18.93
2023-04-15T23:27:39.735Z,18.27
2023-04-15T23:30:07.742Z,17.57
2023-04-15T23:32:34.729Z,17.70
2023-04-15T23:35:01.510Z,19.60
2023-04-15T23:37:30.576Z,18.33
2023-04-15T23:40:00.177Z,17.97
2023-04-15T23:42:26.887Z,20.53
2023-04-15T23:44:53.570Z,18.50
2023-04-15T23:47:20.754Z,19.03
2023-04-15T23:49:47.595Z,18.80
2023-04-15T23:52:14.356Z,19.40
2023-04-15T23:54:42.614Z,20.27
2023-04-15T23:57:09.287Z,17.40
2023-04-15T23:59:35.989Z,18.97
